sensor_id;sensor_type;location;lat;lon;timestamp;pressure;altitude;pressure_sealevel;temperature;humidity
47366;BME280;33105;47.964;7.982;2023-03-15T00:02:44;96458.38;;;2.16;100.00
47366;BME280;33105;47.964;7.982;2023-03-15T00:05:47;96463.16;;;2.14;100.00
47366;BME280;33105;47.964;7.982;2023-03-15T00:08:48;96476.25;;;2.10;100.00
47366;BME280;33105;47.964;7.982;2023-03-15T00:11:52;96488.03;;;2.16;100.00
47366;BME280;33105;47.964;7.982;2023-03-15T00:14:56;96487.81;;;2.17;100.00
47366;BME280;33105;47.964;7.982;2023-03-15T00:17:57;96500.47;;;2.17;100.00
47366;BME280;33105;47.964;7.982;2023-03-15T00:21:03;96508.41;;;1.98;100.00
47366;BME280;33105;47.964;7.982;2023-03-15T00:24:05;96515.69;;;1.98;100.00
47366;BME280;33105;47.964;7.982;2023-03-15T00:27:07;96517.72;;;2.02;100.00
47366;BME280;33105;47.964;7.982;2023-03-15T00:30:12;96533.97;;;1.83;100.00
47366;BME280;33105;47.964;7.982;2023-03-15T00:33:14;96529.84;;;1.80;100.00
47366;BME280;33105;47.964;7.982;2023-03-15T00:36:15;96540.66;;;1.60;100.00
47366;BME280;33105;47.964;7.982;2023-03-15T00:39:17;96547.28;;;1.64;100.00
47366;BME280;33105;47.964;7.982;2023-03-15T00:42:18;96547.50;;;1.63;100.00
47366;BME280;33105;47.964;7.982;2023-03-15T00:45:23;96558.69;;;1.60;100.00
47366;BME280;33105;47.964;7.982;2023-03-15T00:48:25;96568.66;;;1.40;100.00
47366;BME280;33105;47.964;7.982;2023-03-15T00:51:29;96565.50;;;1.69;100.00
47366;BME280;33105;47.964;7.982;2023-03-15T00:54:31;96566.56;;;1.55;100.00
47366;BME280;33105;47.964;7.982;2023-03-15T00:57:35;96567.81;;;1.52;100.00
47366;BME280;33105;47.964;7.982;2023-03-15T01:00:36;96576.28;;;1.49;100.00
47366;BME280;33105;47.964;7.982;2023-03-15T01:03:39;96576.53;;;1.41;100.00
47366;BME280;33105;47.964;7.982;2023-03-15T01:06:40;96589.78;;;1.43;100.00
47366;BME280;33105;47.964;7.982;2023-03-15T01:09:42;96587.91;;;1.36;100.00
47366;BME280;33105;47.964;7.982;2023-03-15T01:13:11;96593.94;;;1.32;100.00
47366;BME280;33105;47.964;7.982;2023-03-15T01:16:32;96597.25;;;1.47;100.00
47366;BME280;33105;47.964;7.982;2023-03-15T01:19:33;96612.97;;;1.24;100.00
47366;BME280;33105;47.964;7.982;2023-03-15T01:22:38;96625.63;;;1.23;100.00
47366;BME280;33105;47.964;7.982;2023-03-15T01:25:41;96623.31;;;1.27;100.00
47366;BME280;33105;47.964;7.982;2023-03-15T01:28:42;96624.75;;;1.29;100.00
47366;BME280;33105;47.964;7.982;2023-03-15T01:31:44;96632.66;;;1.18;100.00
47366;BME280;33105;47.964;7.982;2023-03-15T01:34:53;96635.94;;;1.33;100.00
47366;BME280;33105;47.964;7.982;2023-03-15T01:38:43;96641.34;;;1.20;100.00
47366;BME280;33105;47.964;7.982;2023-03-15T01:42:04;96643.59;;;1.16;100.00
47366;BME280;33105;47.964;7.982;2023-03-15T01:48:47;96656.63;;;0.93;100.00
47366;BME280;33105;47.964;7.982;2023-03-15T01:52:03;96655.34;;;0.82;100.00
47366;BME280;33105;47.964;7.982;2023-03-15T01:55:39;96652.63;;;0.76;100.00
47366;BME280;33105;47.964;7.982;2023-03-15T01:58:46;96651.16;;;0.66;100.00
47366;BME280;33105;47.964;7.982;2023-03-15T02:01:48;96648.66;;;0.58;100.00
47366;BME280;33105;47.964;7.982;2023-03-15T02:04:57;96652.16;;;0.52;100.00
47366;BME280;33105;47.964;7.982;2023-03-15T02:08:02;96651.13;;;0.47;100.00
47366;BME280;33105;47.964;7.982;2023-03-15T02:11:09;96650.25;;;0.40;100.00
47366;BME280;33105;47.964;7.982;2023-03-15T02:14:11;96660.50;;;0.16;100.00
47366;BME280;33105;47.964;7.982;2023-03-15T02:17:16;96656.00;;;0.30;100.00
47366;BME280;33105;47.964;7.982;2023-03-15T02:20:44;96663.63;;;0.26;100.00
47366;BME280;33105;47.964;7.982;2023-03-15T02:24:01;96666.50;;;0.25;100.00
47366;BME280;33105;47.964;7.982;2023-03-15T02:27:06;96670.25;;;0.24;100.00
47366;BME280;33105;47.964;7.982;2023-03-15T02:30:08;96662.78;;;0.26;100.00
47366;BME280;33105;47.964;7.982;2023-03-15T02:33:24;96653.66;;;0.14;100.00
47366;BME280;33105;47.964;7.982;2023-03-15T02:36:28;96655.53;;;0.20;100.00
47366;BME280;33105;47.964;7.982;2023-03-15T02:39:33;96660.88;;;0.13;100.00
47366;BME280;33105;47.964;7.982;2023-03-15T02:42:34;96655.72;;;0.12;100.00
47366;BME280;33105;47.964;7.982;2023-03-15T02:45:35;96650.09;;;0.07;100.00
47366;BME280;33105;47.964;7.982;2023-03-15T02:48:41;96660.81;;;0.00;100.00
47366;BME280;33105;47.964;7.982;2023-03-15T02:51:42;96652.97;;;-0.02;100.00
47366;BME280;33105;47.964;7.982;2023-03-15T02:54:44;96654.41;;;0.01;100.00
47366;BME280;33105;47.964;7.982;2023-03-15T02:57:45;96660.78;;;-0.07;100.00
47366;BME280;33105;47.964;7.982;2023-03-15T03:00:46;96659.50;;;-0.11;100.00
47366;BME280;33105;47.964;7.982;2023-03-15T03:03:47;96675.44;;;-0.09;100.00
47366;BME280;33105;47.964;7.982;2023-03-15T03:06:48;96672.50;;;-0.14;100.00
47366;BME280;33105;47.964;7.982;2023-03-15T03:09:54;96666.50;;;-0.16;100.00
47366;BME280;33105;47.964;7.982;2023-03-15T03:12:56;96680.34;;;-0.13;100.00
47366;BME280;33105;47.964;7.982;2023-03-15T03:16:06;96676.00;;;-0.14;100.00
47366;BME280;33105;47.964;7.982;2023-03-15T03:19:09;96677.38;;;-0.24;100.00
47366;BME280;33105;47.964;7.982;2023-03-15T03:22:12;96684.81;;;-0.26;100.00
47366;BME280;33105;47.964;7.982;2023-03-15T03:25:14;96688.72;;;-0.29;100.00
47366;BME280;33105;47.964;7.982;2023-03-15T03:28:15;96696.16;;;-0.31;100.00
47366;BME280;33105;47.964;7.982;2023-03-15T03:31:22;96689.94;;;-0.31;100.00
47366;BME280;33105;47.964;7.982;2023-03-15T03:34:25;96690.28;;;-0.41;100.00
47366;BME280;33105;47.964;7.982;2023-03-15T03:37:26;96694.34;;;-0.52;100.00
47366;BME280;33105;47.964;7.982;2023-03-15T03:40:38;96689.53;;;-0.56;100.00
47366;BME280;33105;47.964;7.982;2023-03-15T03:43:41;96691.72;;;-0.66;100.00
47366;BME280;33105;47.964;7.982;2023-03-15T03:46:43;96697.44;;;-0.76;100.00
47366;BME280;33105;47.964;7.982;2023-03-15T03:49:46;96706.31;;;-0.76;100.00
47366;BME280;33105;47.964;7.982;2023-03-15T03:52:47;96715.53;;;-0.57;100.00
47366;BME280;33105;47.964;7.982;2023-03-15T03:55:55;96717.41;;;-0.57;100.00
47366;BME280;33105;47.964;7.982;2023-03-15T03:58:57;96710.38;;;-0.58;100.00
47366;BME280;33105;47.964;7.982;2023-03-15T04:02:10;96708.31;;;-0.56;100.00
47366;BME280;33105;47.964;7.982;2023-03-15T04:05:13;96712.94;;;-0.50;100.00
47366;BME280;33105;47.964;7.982;2023-03-15T04:08:16;96720.97;;;-0.50;100.00
47366;BME280;33105;47.964;7.982;2023-03-15T04:11:17;96725.81;;;-0.39;100.00
47366;BME280;33105;47.964;7.982;2023-03-15T04:14:23;96731.94;;;-0.45;100.00
47366;BME280;33105;47.964;7.982;2023-03-15T04:17:25;96741.63;;;-0.51;100.00
47366;BME280;33105;47.964;7.982;2023-03-15T04:20:27;96736.38;;;-0.59;100.00
47366;BME280;33105;47.964;7.982;2023-03-15T04:23:28;96752.03;;;-0.62;100.00
47366;BME280;33105;47.964;7.982;2023-03-15T04:26:45;96750.53;;;-0.65;100.00
47366;BME280;33105;47.964;7.982;2023-03-15T04:30:05;96746.00;;;-0.64;100.00
47366;BME280;33105;47.964;7.982;2023-03-15T04:33:23;96750.28;;;-0.70;100.00
47366;BME280;33105;47.964;7.982;2023-03-15T04:36:45;96747.88;;;-0.65;100.00
47366;BME280;33105;47.964;7.982;2023-03-15T04:40:05;96760.44;;;-0.65;100.00
47366;BME280;33105;47.964;7.982;2023-03-15T04:43:25;96762.28;;;-0.66;100.00
47366;BME280;33105;47.964;7.982;2023-03-15T04:46:42;96765.16;;;-0.68;100.00
47366;BME280;33105;47.964;7.982;2023-03-15T04:49:55;96772.19;;;-0.66;100.00
47366;BME280;33105;47.964;7.982;2023-03-15T04:53:07;96769.03;;;-0.77;100.00
47366;BME280;33105;47.964;7.982;2023-03-15T04:56:20;96770.91;;;-0.71;100.00
47366;BME280;33105;47.964;7.982;2023-03-15T04:59:39;96772.00;;;-0.65;100.00
47366;BME280;33105;47.964;7.982;2023-03-15T05:02:53;96766.84;;;-0.66;100.00
47366;BME280;33105;47.964;7.982;2023-03-15T05:06:06;96770.31;;;-0.51;99.02
47366;BME280;33105;47.964;7.982;2023-03-15T05:09:19;96768.50;;;-0.65;100.00
47366;BME280;33105;47.964;7.982;2023-03-15T05:12:56;96762.56;;;-0.82;100.00
47366;BME280;33105;47.964;7.982;2023-03-15T05:16:15;96770.53;;;-0.89;100.00
47366;BME280;33105;47.964;7.982;2023-03-15T05:19:37;96770.03;;;-0.78;100.00
47366;BME280;33105;47.964;7.982;2023-03-15T05:23:04;96778.13;;;-0.71;99.78
47366;BME280;33105;47.964;7.982;2023-03-15T05:26:14;96782.63;;;-0.78;99.49
47366;BME280;33105;47.964;7.982;2023-03-15T05:29:31;96783.25;;;-0.76;100.00
47366;BME280;33105;47.964;7.982;2023-03-15T05:32:42;96790.72;;;-0.72;100.00
47366;BME280;33105;47.964;7.982;2023-03-15T05:36:05;96789.03;;;-0.73;100.00
47366;BME280;33105;47.964;7.982;2023-03-15T05:39:11;96788.53;;;-0.83;99.98
47366;BME280;33105;47.964;7.982;2023-03-15T05:42:55;96800.38;;;-0.77;100.00
47366;BME280;33105;47.964;7.982;2023-03-15T05:46:11;96794.44;;;-0.51;97.65
47366;BME280;33105;47.964;7.982;2023-03-15T05:49:31;96788.53;;;-0.83;98.94
47366;BME280;33105;47.964;7.982;2023-03-15T05:52:51;96799.53;;;-0.78;99.43
47366;BME280;33105;47.964;7.982;2023-03-15T05:56:06;96801.41;;;-0.93;99.46
47366;BME280;33105;47.964;7.982;2023-03-15T05:59:26;96810.22;;;-0.99;99.27
47366;BME280;33105;47.964;7.982;2023-03-15T06:02:50;96807.16;;;-0.96;99.41
47366;BME280;33105;47.964;7.982;2023-03-15T06:06:06;96811.03;;;-0.84;98.17
47366;BME280;33105;47.964;7.982;2023-03-15T06:09:14;96810.28;;;-0.92;99.11
47366;BME280;33105;47.964;7.982;2023-03-15T06:12:15;96810.75;;;-0.89;99.51
47366;BME280;33105;47.964;7.982;2023-03-15T06:15:18;96816.81;;;-1.01;99.60
47366;BME280;33105;47.964;7.982;2023-03-15T06:18:20;96821.56;;;-0.82;99.28
47366;BME280;33105;47.964;7.982;2023-03-15T06:21:23;96821.84;;;-0.77;98.21
47366;BME280;33105;47.964;7.982;2023-03-15T06:24:25;96827.84;;;-0.75;98.46
47366;BME280;33105;47.964;7.982;2023-03-15T06:27:27;96828.28;;;-0.72;97.93
47366;BME280;33105;47.964;7.982;2023-03-15T06:30:30;96824.53;;;-0.92;98.36
47366;BME280;33105;47.964;7.982;2023-03-15T06:33:34;96822.13;;;-0.87;98.74
47366;BME280;33105;47.964;7.982;2023-03-15T06:36:35;96830.25;;;-0.80;98.46
47366;BME280;33105;47.964;7.982;2023-03-15T06:39:38;96841.53;;;-0.85;98.59
47366;BME280;33105;47.964;7.982;2023-03-15T06:42:40;96836.06;;;-0.77;98.77
47366;BME280;33105;47.964;7.982;2023-03-15T06:45:45;96840.97;;;-0.80;98.40
47366;BME280;33105;47.964;7.982;2023-03-15T06:48:50;96847.19;;;-0.80;98.71
47366;BME280;33105;47.964;7.982;2023-03-15T06:51:55;96852.50;;;-0.65;98.72
47366;BME280;33105;47.964;7.982;2023-03-15T06:54:57;96854.34;;;-0.65;98.08
47366;BME280;33105;47.964;7.982;2023-03-15T06:58:01;96855.50;;;-0.75;98.30
47366;BME280;33105;47.964;7.982;2023-03-15T07:01:06;96845.91;;;-0.62;98.08
47366;BME280;33105;47.964;7.982;2023-03-15T07:04:11;96843.88;;;-0.60;97.14
47366;BME280;33105;47.964;7.982;2023-03-15T07:07:16;96834.19;;;-0.40;96.34
47366;BME280;33105;47.964;7.982;2023-03-15T07:10:18;96839.94;;;-0.43;95.82
47366;BME280;33105;47.964;7.982;2023-03-15T07:13:20;96847.84;;;-0.56;97.23
47366;BME280;33105;47.964;7.982;2023-03-15T07:16:21;96851.00;;;-0.53;97.23
47366;BME280;33105;47.964;7.982;2023-03-15T07:19:23;96853.88;;;-0.33;95.10
47366;BME280;33105;47.964;7.982;2023-03-15T07:22:24;96856.28;;;-0.59;96.47
47366;BME280;33105;47.964;7.982;2023-03-15T07:25:26;96868.59;;;-0.65;96.53
47366;BME280;33105;47.964;7.982;2023-03-15T07:28:28;96880.88;;;-0.56;97.24
47366;BME280;33105;47.964;7.982;2023-03-15T07:31:32;96885.03;;;-0.53;98.13
47366;BME280;33105;47.964;7.982;2023-03-15T07:34:37;96888.50;;;-0.38;96.92
47366;BME280;33105;47.964;7.982;2023-03-15T07:37:38;96886.47;;;-0.36;97.88
47366;BME280;33105;47.964;7.982;2023-03-15T07:40:40;96882.03;;;-0.22;97.34
47366;BME280;33105;47.964;7.982;2023-03-15T07:43:45;96886.91;;;0.10;97.16
47366;BME280;33105;47.964;7.982;2023-03-15T07:46:49;96881.47;;;0.04;96.33
47366;BME280;33105;47.964;7.982;2023-03-15T07:49:51;96884.34;;;0.02;97.32
47366;BME280;33105;47.964;7.982;2023-03-15T07:52:52;96890.28;;;0.19;96.59
47366;BME280;33105;47.964;7.982;2023-03-15T07:55:57;96893.03;;;0.53;94.67
47366;BME280;33105;47.964;7.982;2023-03-15T07:59:00;96888.22;;;0.77;91.53
47366;BME280;33105;47.964;7.982;2023-03-15T08:02:02;96899.00;;;0.49;94.62
47366;BME280;33105;47.964;7.982;2023-03-15T08:05:04;96894.06;;;0.52;94.38
47366;BME280;33105;47.964;7.982;2023-03-15T08:08:06;96897.69;;;0.38;94.93
47366;BME280;33105;47.964;7.982;2023-03-15T08:11:07;96897.81;;;0.30;94.84
47366;BME280;33105;47.964;7.982;2023-03-15T08:14:09;96896.44;;;0.13;94.84
47366;BME280;33105;47.964;7.982;2023-03-15T08:17:10;96896.75;;;0.52;94.69
47366;BME280;33105;47.964;7.982;2023-03-15T08:20:13;96892.81;;;0.27;94.93
47366;BME280;33105;47.964;7.982;2023-03-15T08:23:17;96900.22;;;0.46;95.33
47366;BME280;33105;47.964;7.982;2023-03-15T08:26:18;96900.47;;;0.51;95.21
47366;BME280;33105;47.964;7.982;2023-03-15T08:29:20;96893.66;;;0.27;94.57
47366;BME280;33105;47.964;7.982;2023-03-15T08:32:21;96898.56;;;0.45;94.58
47366;BME280;33105;47.964;7.982;2023-03-15T08:35:22;96904.63;;;0.54;94.80
47366;BME280;33105;47.964;7.982;2023-03-15T08:38:24;96897.94;;;0.43;93.51
47366;BME280;33105;47.964;7.982;2023-03-15T08:41:26;96896.53;;;0.47;93.28
47366;BME280;33105;47.964;7.982;2023-03-15T08:44:27;96889.50;;;0.53;93.51
47366;BME280;33105;47.964;7.982;2023-03-15T08:47:28;96892.19;;;0.53;93.28
47366;BME280;33105;47.964;7.982;2023-03-15T08:50:30;96883.16;;;0.60;93.59
47366;BME280;33105;47.964;7.982;2023-03-15T08:53:32;96888.63;;;0.74;93.04
47366;BME280;33105;47.964;7.982;2023-03-15T08:56:34;96884.75;;;0.83;93.39
47366;BME280;33105;47.964;7.982;2023-03-15T08:59:39;96884.69;;;0.70;93.26
47366;BME280;33105;47.964;7.982;2023-03-15T09:02:40;96889.88;;;0.71;93.03
47366;BME280;33105;47.964;7.982;2023-03-15T09:05:41;96891.94;;;0.76;92.99
47366;BME280;33105;47.964;7.982;2023-03-15T09:08:42;96904.22;;;0.85;92.25
47366;BME280;33105;47.964;7.982;2023-03-15T09:11:43;96908.66;;;0.99;90.05
47366;BME280;33105;47.964;7.982;2023-03-15T09:14:45;96907.44;;;1.08;88.73
47366;BME280;33105;47.964;7.982;2023-03-15T09:17:48;96913.31;;;1.18;88.90
47366;BME280;33105;47.964;7.982;2023-03-15T09:20:50;96917.94;;;1.38;89.63
47366;BME280;33105;47.964;7.982;2023-03-15T09:23:52;96906.59;;;1.42;89.69
47366;BME280;33105;47.964;7.982;2023-03-15T09:26:54;96914.66;;;1.49;89.43
47366;BME280;33105;47.964;7.982;2023-03-15T09:29:55;96913.19;;;1.40;88.25
47366;BME280;33105;47.964;7.982;2023-03-15T09:32:56;96912.59;;;1.44;85.26
47366;BME280;33105;47.964;7.982;2023-03-15T09:35:58;96916.31;;;1.50;86.77
47366;BME280;33105;47.964;7.982;2023-03-15T09:39:06;96918.03;;;1.57;85.78
47366;BME280;33105;47.964;7.982;2023-03-15T09:42:32;96923.94;;;1.87;86.03
47366;BME280;33105;47.964;7.982;2023-03-15T09:52:31;96933.09;;;2.26;82.87
47366;BME280;33105;47.964;7.982;2023-03-15T09:55:34;96927.53;;;2.41;83.07
47366;BME280;33105;47.964;7.982;2023-03-15T09:58:35;96914.41;;;3.17;74.52
47366;BME280;33105;47.964;7.982;2023-03-15T10:01:41;96913.31;;;3.82;74.26
47366;BME280;33105;47.964;7.982;2023-03-15T10:04:44;96917.22;;;3.41;77.90
47366;BME280;33105;47.964;7.982;2023-03-15T10:07:47;96921.88;;;3.72;68.41
47366;BME280;33105;47.964;7.982;2023-03-15T10:10:50;96921.22;;;3.26;78.58
47366;BME280;33105;47.964;7.982;2023-03-15T10:26:50;96901.94;;;5.11;62.46
47366;BME280;33105;47.964;7.982;2023-03-15T10:29:56;96901.34;;;5.27;60.77
47366;BME280;33105;47.964;7.982;2023-03-15T10:36:20;96907.66;;;5.39;67.28
47366;BME280;33105;47.964;7.982;2023-03-15T10:39:23;96913.22;;;5.44;63.58
47366;BME280;33105;47.964;7.982;2023-03-15T10:42:32;96917.63;;;5.02;65.13
47366;BME280;33105;47.964;7.982;2023-03-15T10:50:39;96900.00;;;5.36;57.68
47366;BME280;33105;47.964;7.982;2023-03-15T10:58:29;96883.72;;;5.55;58.63
47366;BME280;33105;47.964;7.982;2023-03-15T11:01:38;96888.50;;;5.71;51.87
47366;BME280;33105;47.964;7.982;2023-03-15T11:05:01;96890.56;;;5.94;58.18
47366;BME280;33105;47.964;7.982;2023-03-15T11:08:03;96885.38;;;6.34;57.04
47366;BME280;33105;47.964;7.982;2023-03-15T11:11:04;96893.59;;;6.16;53.31
47366;BME280;33105;47.964;7.982;2023-03-15T11:14:06;96891.84;;;5.91;52.28
47366;BME280;33105;47.964;7.982;2023-03-15T11:17:36;96887.84;;;5.94;53.95
47366;BME280;33105;47.964;7.982;2023-03-15T11:20:51;96881.63;;;6.35;51.41
47366;BME280;33105;47.964;7.982;2023-03-15T11:23:55;96875.72;;;6.38;56.68
47366;BME280;33105;47.964;7.982;2023-03-15T11:27:00;96887.44;;;6.08;59.13
47366;BME280;33105;47.964;7.982;2023-03-15T11:30:02;96886.94;;;5.81;56.48
47366;BME280;33105;47.964;7.982;2023-03-15T11:42:26;96875.28;;;5.26;56.23
47366;BME280;33105;47.964;7.982;2023-03-15T11:50:11;96857.59;;;6.08;55.22
47366;BME280;33105;47.964;7.982;2023-03-15T11:53:14;96859.78;;;6.30;58.98
47366;BME280;33105;47.964;7.982;2023-03-15T11:56:23;96845.66;;;6.74;59.41
47366;BME280;33105;47.964;7.982;2023-03-15T11:59:26;96845.66;;;6.98;54.48
47366;BME280;33105;47.964;7.982;2023-03-15T12:05:50;96865.59;;;6.68;53.88
47366;BME280;33105;47.964;7.982;2023-03-15T12:08:53;96860.97;;;6.45;55.52
47366;BME280;33105;47.964;7.982;2023-03-15T12:12:03;96866.94;;;7.01;50.01
47366;BME280;33105;47.964;7.982;2023-03-15T12:18:17;96848.44;;;7.49;49.43
47366;BME280;33105;47.964;7.982;2023-03-15T12:21:40;96853.78;;;7.73;48.87
47366;BME280;33105;47.964;7.982;2023-03-15T12:24:44;96843.69;;;7.45;50.00
47366;BME280;33105;47.964;7.982;2023-03-15T12:27:50;96862.19;;;7.31;49.69
47366;BME280;33105;47.964;7.982;2023-03-15T12:30:55;96849.19;;;7.22;51.34
47366;BME280;33105;47.964;7.982;2023-03-15T12:34:02;96855.44;;;7.22;49.42
47366;BME280;33105;47.964;7.982;2023-03-15T12:37:12;96847.22;;;7.17;51.34
47366;BME280;33105;47.964;7.982;2023-03-15T12:43:34;96841.03;;;7.22;50.31
47366;BME280;33105;47.964;7.982;2023-03-15T12:49:44;96844.78;;;8.12;49.28
47366;BME280;33105;47.964;7.982;2023-03-15T12:52:46;96837.88;;;7.93;48.86
47366;BME280;33105;47.964;7.982;2023-03-15T12:55:52;96834.16;;;8.28;49.50
47366;BME280;33105;47.964;7.982;2023-03-15T12:58:58;96839.34;;;8.12;48.83
47366;BME280;33105;47.964;7.982;2023-03-15T13:02:09;96831.16;;;7.56;48.01
47366;BME280;33105;47.964;7.982;2023-03-15T13:05:22;96832.91;;;7.62;49.45
47366;BME280;33105;47.964;7.982;2023-03-15T13:12:04;96829.41;;;7.49;52.15
47366;BME280;33105;47.964;7.982;2023-03-15T13:15:11;96828.22;;;7.45;51.88
47366;BME280;33105;47.964;7.982;2023-03-15T13:18:20;96837.25;;;7.74;49.48
47366;BME280;33105;47.964;7.982;2023-03-15T13:21:38;96826.00;;;7.71;48.96
47366;BME280;33105;47.964;7.982;2023-03-15T13:28:20;96822.91;;;7.79;49.55
47366;BME280;33105;47.964;7.982;2023-03-15T13:31:25;96812.19;;;8.17;47.12
47366;BME280;33105;47.964;7.982;2023-03-15T13:34:28;96804.81;;;8.30;48.55
47366;BME280;33105;47.964;7.982;2023-03-15T13:37:31;96811.53;;;8.56;47.64
47366;BME280;33105;47.964;7.982;2023-03-15T13:40:32;96810.50;;;8.45;47.84
47366;BME280;33105;47.964;7.982;2023-03-15T13:43:37;96807.84;;;8.16;48.85
47366;BME280;33105;47.964;7.982;2023-03-15T13:46:38;96815.56;;;8.08;48.15
47366;BME280;33105;47.964;7.982;2023-03-15T13:49:40;96814.16;;;8.34;48.73
47366;BME280;33105;47.964;7.982;2023-03-15T13:52:41;96804.69;;;8.08;47.11
47366;BME280;33105;47.964;7.982;2023-03-15T13:55:51;96813.91;;;7.50;45.79
47366;BME280;33105;47.964;7.982;2023-03-15T13:58:53;96804.41;;;7.93;50.48
47366;BME280;33105;47.964;7.982;2023-03-15T14:01:56;96799.88;;;7.98;50.10
47366;BME280;33105;47.964;7.982;2023-03-15T14:05:01;96805.25;;;8.38;48.03
47366;BME280;33105;47.964;7.982;2023-03-15T14:08:05;96794.59;;;8.53;47.36
47366;BME280;33105;47.964;7.982;2023-03-15T14:11:32;96804.34;;;8.49;43.70
47366;BME280;33105;47.964;7.982;2023-03-15T14:14:48;96793.28;;;8.56;46.82
47366;BME280;33105;47.964;7.982;2023-03-15T14:17:52;96799.28;;;8.75;45.97
47366;BME280;33105;47.964;7.982;2023-03-15T14:21:02;96811.38;;;8.62;46.04
47366;BME280;33105;47.964;7.982;2023-03-15T14:24:06;96802.75;;;8.87;45.40
47366;BME280;33105;47.964;7.982;2023-03-15T14:27:18;96803.84;;;8.86;47.13
47366;BME280;33105;47.964;7.982;2023-03-15T14:30:21;96797.97;;;8.77;46.54
47366;BME280;33105;47.964;7.982;2023-03-15T14:33:36;96795.13;;;9.06;44.78
47366;BME280;33105;47.964;7.982;2023-03-15T14:36:42;96788.50;;;9.02;45.81
47366;BME280;33105;47.964;7.982;2023-03-15T14:39:44;96793.81;;;8.92;47.44
47366;BME280;33105;47.964;7.982;2023-03-15T14:42:46;96796.03;;;8.95;47.41
47366;BME280;33105;47.964;7.982;2023-03-15T14:45:48;96795.66;;;8.86;48.05
47366;BME280;33105;47.964;7.982;2023-03-15T14:48:50;96799.44;;;8.68;47.08
47366;BME280;33105;47.964;7.982;2023-03-15T14:51:58;96795.22;;;8.27;46.35
47366;BME280;33105;47.964;7.982;2023-03-15T14:55:01;96795.81;;;8.29;47.35
47366;BME280;33105;47.964;7.982;2023-03-15T14:58:19;96799.13;;;8.48;47.18
47366;BME280;33105;47.964;7.982;2023-03-15T15:01:25;96802.13;;;8.63;45.53
47366;BME280;33105;47.964;7.982;2023-03-15T15:04:31;96800.03;;;8.70;46.02
47366;BME280;33105;47.964;7.982;2023-03-15T15:07:33;96783.06;;;8.63;46.95
47366;BME280;33105;47.964;7.982;2023-03-15T15:10:35;96796.91;;;8.62;47.02
47366;BME280;33105;47.964;7.982;2023-03-15T15:13:37;96799.03;;;8.43;46.51
47366;BME280;33105;47.964;7.982;2023-03-15T15:16:39;96802.06;;;8.13;47.55
47366;BME280;33105;47.964;7.982;2023-03-15T15:19:40;96799.38;;;8.46;46.08
47366;BME280;33105;47.964;7.982;2023-03-15T15:22:41;96791.19;;;8.30;45.64
47366;BME280;33105;47.964;7.982;2023-03-15T15:25:43;96797.91;;;8.39;47.83
47366;BME280;33105;47.964;7.982;2023-03-15T15:28:44;96804.09;;;8.51;46.56
47366;BME280;33105;47.964;7.982;2023-03-15T15:31:46;96797.81;;;8.34;47.81
47366;BME280;33105;47.964;7.982;2023-03-15T15:34:47;96803.84;;;8.36;45.08
47366;BME280;33105;47.964;7.982;2023-03-15T15:37:48;96802.56;;;8.27;44.79
47366;BME280;33105;47.964;7.982;2023-03-15T15:40:50;96814.38;;;7.87;46.22
47366;BME280;33105;47.964;7.982;2023-03-15T15:43:51;96813.09;;;8.06;48.50
47366;BME280;33105;47.964;7.982;2023-03-15T15:46:52;96812.38;;;7.82;47.22
47366;BME280;33105;47.964;7.982;2023-03-15T15:49:54;96819.28;;;7.73;48.36
47366;BME280;33105;47.964;7.982;2023-03-15T15:52:55;96815.63;;;7.68;50.18
47366;BME280;33105;47.964;7.982;2023-03-15T15:55:56;96829.28;;;7.56;49.98
47366;BME280;33105;47.964;7.982;2023-03-15T15:58:59;96823.13;;;7.61;49.79
47366;BME280;33105;47.964;7.982;2023-03-15T16:02:00;96835.78;;;7.43;50.05
47366;BME280;33105;47.964;7.982;2023-03-15T16:05:01;96830.84;;;7.40;49.20
47366;BME280;33105;47.964;7.982;2023-03-15T16:08:03;96842.31;;;7.31;50.38
47366;BME280;33105;47.964;7.982;2023-03-15T16:11:05;96846.63;;;7.15;50.36
47366;BME280;33105;47.964;7.982;2023-03-15T16:14:09;96848.28;;;6.93;47.13
47366;BME280;33105;47.964;7.982;2023-03-15T16:17:15;96850.16;;;7.04;47.06
47366;BME280;33105;47.964;7.982;2023-03-15T16:20:16;96852.06;;;6.80;46.73
47366;BME280;33105;47.964;7.982;2023-03-15T16:23:22;96843.19;;;6.85;47.14
47366;BME280;33105;47.964;7.982;2023-03-15T16:26:24;96849.69;;;6.95;46.83
47366;BME280;33105;47.964;7.982;2023-03-15T16:29:31;96854.19;;;6.90;47.39
47366;BME280;33105;47.964;7.982;2023-03-15T16:32:35;96855.59;;;6.80;46.94
47366;BME280;33105;47.964;7.982;2023-03-15T16:35:36;96854.53;;;6.81;48.51
47366;BME280;33105;47.964;7.982;2023-03-15T16:38:37;96856.06;;;6.89;48.83
47366;BME280;33105;47.964;7.982;2023-03-15T16:41:39;96864.22;;;6.77;48.79
47366;BME280;33105;47.964;7.982;2023-03-15T16:44:40;96866.19;;;6.70;47.61
47366;BME280;33105;47.964;7.982;2023-03-15T16:47:42;96862.53;;;6.53;46.89
47366;BME280;33105;47.964;7.982;2023-03-15T16:50:43;96873.63;;;6.52;48.07
47366;BME280;33105;47.964;7.982;2023-03-15T16:53:44;96877.38;;;6.51;50.25
47366;BME280;33105;47.964;7.982;2023-03-15T16:56:46;96882.38;;;6.65;52.48
47366;BME280;33105;47.964;7.982;2023-03-15T16:59:47;96887.09;;;6.58;51.95
47366;BME280;33105;47.964;7.982;2023-03-15T17:02:49;96884.81;;;6.43;50.96
47366;BME280;33105;47.964;7.982;2023-03-15T17:05:51;96889.63;;;6.30;50.81
47366;BME280;33105;47.964;7.982;2023-03-15T17:08:58;96887.22;;;6.22;51.79
47366;BME280;33105;47.964;7.982;2023-03-15T17:12:00;96890.22;;;6.02;51.67
47366;BME280;33105;47.964;7.982;2023-03-15T17:15:02;96902.03;;;6.07;52.99
47366;BME280;33105;47.964;7.982;2023-03-15T17:18:09;96897.22;;;6.09;53.48
47366;BME280;33105;47.964;7.982;2023-03-15T17:21:15;96903.69;;;6.08;53.75
47366;BME280;33105;47.964;7.982;2023-03-15T17:24:17;96901.75;;;5.97;53.01
47366;BME280;33105;47.964;7.982;2023-03-15T17:27:32;96906.50;;;6.02;53.72
47366;BME280;33105;47.964;7.982;2023-03-15T17:30:35;96914.72;;;5.95;54.16
47366;BME280;33105;47.964;7.982;2023-03-15T17:33:37;96915.47;;;6.02;54.59
47366;BME280;33105;47.964;7.982;2023-03-15T17:36:38;96933.38;;;6.03;55.13
47366;BME280;33105;47.964;7.982;2023-03-15T17:39:41;96925.72;;;6.00;55.41
47366;BME280;33105;47.964;7.982;2023-03-15T17:42:44;96924.50;;;5.96;56.37